Time;durP1;ratioP1;P1;durP2;ratioP2;P2;SDS_P1;SDS_P2;PMS_P1;PMS_P2;Temp;Humidity;BMP_temperature;BMP_pressure;BME280_temperature;BME280_humidity;BME280_pressure;Samples;Min_cycle;Max_cycle;Signal;HPM_P1;HPM_P2
2021/01/05 00:01:44;;;;;;;5.07;3.10;;;3.00;99.90;;;;;;5006863;28;21700;-54
2021/01/05 00:04:11;;;;;;;3.80;2.90;;;3.00;99.90;;;;;;5008099;28;20505;-52
2021/01/05 00:06:38;;;;;;;4.53;3.20;;;3.00;99.90;;;;;;5007248;28;20499;-52
2021/01/05 00:09:06;;;;;;;5.23;3.50;;;3.00;99.90;;;;;;5007875;28;20481;-52
2021/01/05 00:11:33;;;;;;;4.07;3.30;;;3.00;99.90;;;;;;5009739;28;20578;-53
2021/01/05 00:14:01;;;;;;;4.40;3.37;;;3.00;99.90;;;;;;5007694;28;21057;-53
2021/01/05 00:16:29;;;;;;;3.57;3.27;;;3.00;99.90;;;;;;5007823;28;20985;-54
2021/01/05 00:18:57;;;;;;;5.07;3.20;;;3.00;99.90;;;;;;5007526;28;20564;-53
2021/01/05 00:21:25;;;;;;;6.20;3.20;;;3.00;99.90;;;;;;5007013;28;20903;-53
2021/01/05 00:23:53;;;;;;;4.97;3.53;;;3.00;99.90;;;;;;5007317;28;20478;-53
2021/01/05 00:26:22;;;;;;;6.27;3.57;;;3.00;99.90;;;;;;5002953;28;20531;-53
2021/01/05 00:28:49;;;;;;;5.50;4.03;;;3.00;99.90;;;;;;5004692;28;20484;-56
2021/01/05 00:31:17;;;;;;;4.53;3.57;;;3.00;99.90;;;;;;5006865;28;20884;-52
2021/01/05 00:33:44;;;;;;;5.90;3.90;;;3.00;99.90;;;;;;5006847;28;20519;-54
2021/01/05 00:36:11;;;;;;;6.03;4.03;;;3.00;99.90;;;;;;5007282;28;20484;-54
2021/01/05 00:38:39;;;;;;;6.17;4.63;;;3.00;99.90;;;;;;5009459;28;20555;-56
2021/01/05 00:41:06;;;;;;;4.97;3.70;;;3.00;99.90;;;;;;5009800;28;20542;-56
2021/01/05 00:43:33;;;;;;;5.60;3.90;;;3.00;99.90;;;;;;5011637;28;20852;-52
2021/01/05 00:46:01;;;;;;;5.47;4.23;;;3.00;99.90;;;;;;5019675;28;20529;-52
2021/01/05 00:48:29;;;;;;;6.07;4.30;;;3.00;99.90;;;;;;5024903;28;20904;-53
2021/01/05 00:50:56;;;;;;;5.03;4.20;;;3.00;99.90;;;;;;5030916;28;20489;-52
2021/01/05 00:53:24;;;;;;;5.47;4.80;;;3.10;99.90;;;;;;5030556;28;20470;-55
2021/01/05 00:55:51;;;;;;;6.57;4.87;;;3.10;99.90;;;;;;5017434;28;20507;-55
2021/01/05 00:58:23;;;;;;;6.87;4.63;;;3.10;99.90;;;;;;5011278;28;20569;-52
2021/01/05 01:00:51;;;;;;;6.87;4.60;;;3.00;99.90;;;;;;5008628;28;20698;-54
2021/01/05 01:03:19;;;;;;;7.33;5.50;;;3.10;99.90;;;;;;5011593;28;20474;-54
2021/01/05 01:05:49;;;;;;;5.27;4.70;;;3.10;99.90;;;;;;5010608;28;20481;-54
2021/01/05 01:08:20;;;;;;;6.90;4.90;;;3.10;99.90;;;;;;5009509;28;20900;-52
2021/01/05 01:10:51;;;;;;;7.53;5.30;;;3.10;99.90;;;;;;5008943;28;20486;-53
2021/01/05 01:13:22;;;;;;;6.23;5.27;;;3.10;99.90;;;;;;5008523;28;20481;-53
2021/01/05 01:15:49;;;;;;;8.63;5.37;;;3.10;99.90;;;;;;5008841;28;20480;-52
2021/01/05 01:18:17;;;;;;;6.50;5.03;;;3.10;99.90;;;;;;5011377;28;21015;-52
2021/01/05 01:20:45;;;;;;;7.63;5.73;;;3.10;99.90;;;;;;5010027;28;20515;-53
2021/01/05 01:23:20;;;;;;;6.57;4.73;;;3.10;99.90;;;;;;5005977;28;20555;-55
2021/01/05 01:25:51;;;;;;;7.20;5.03;;;3.10;99.90;;;;;;5023347;28;20484;-54
2021/01/05 01:28:19;;;;;;;9.27;5.83;;;3.20;99.90;;;;;;5025583;28;20476;-55
2021/01/05 01:30:48;;;;;;;8.93;5.90;;;3.20;99.90;;;;;;5010004;28;20515;-54
2021/01/05 01:33:20;;;;;;;7.57;5.60;;;3.20;99.90;;;;;;5008550;28;20984;-53
2021/01/05 01:35:47;;;;;;;7.07;5.47;;;3.20;99.90;;;;;;5025108;28;20511;-53
2021/01/05 01:38:16;;;;;;;9.67;6.77;;;3.10;99.90;;;;;;5022575;28;20556;-52
2021/01/05 01:40:51;;;;;;;6.43;5.73;;;3.20;99.90;;;;;;5014661;28;20492;-52
2021/01/05 01:43:27;;;;;;;8.27;6.07;;;3.10;99.90;;;;;;5036868;28;20582;-52
2021/01/05 01:45:58;;;;;;;7.23;6.13;;;3.20;99.90;;;;;;5013183;28;20481;-53
2021/01/05 01:48:34;;;;;;;7.73;6.10;;;3.20;99.90;;;;;;5008076;28;20490;-52
2021/01/05 01:51:02;;;;;;;7.77;5.70;;;3.20;99.90;;;;;;5024155;28;20473;-53
2021/01/05 01:54:02;;;;;;;6.67;5.17;;;3.20;99.90;;;;;;5009723;28;20495;-53
2021/01/05 01:57:16;;;;;;;7.63;5.40;;;3.20;99.90;;;;;;5008421;28;20832;-53
2021/01/05 02:00:15;;;;;;;5.33;4.27;;;3.20;99.90;;;;;;4966984;28;20972;-54
2021/01/05 02:03:21;;;;;;;6.77;4.97;;;3.20;99.90;;;;;;5007175;28;20484;-53
2021/01/05 02:06:13;;;;;;;5.67;4.47;;;3.10;99.90;;;;;;5024727;28;20553;-55
2021/01/05 02:09:01;;;;;;;5.30;4.20;;;3.10;99.90;;;;;;5009506;28;20492;-53
2021/01/05 02:11:46;;;;;;;6.73;4.80;;;3.10;99.90;;;;;;5024009;28;20984;-52
2021/01/05 02:14:36;;;;;;;5.23;3.60;;;3.20;99.90;;;;;;5027642;28;20479;-56
2021/01/05 02:17:57;;;;;;;5.47;4.43;;;3.20;99.90;;;;;;5007834;28;20494;-54
2021/01/05 02:20:30;;;;;;;6.63;3.97;;;3.20;99.90;;;;;;5008392;28;20534;-54
2021/01/05 02:23:14;;;;;;;5.33;4.17;;;3.20;99.90;;;;;;5005195;28;20994;-55
2021/01/05 02:25:53;;;;;;;6.10;4.23;;;3.20;99.90;;;;;;5008819;28;20548;-52
2021/01/05 02:28:31;;;;;;;5.10;4.20;;;3.20;99.90;;;;;;4986579;28;20489;-53
2021/01/05 02:31:04;;;;;;;4.27;3.77;;;3.20;99.90;;;;;;5002648;28;20814;-52
2021/01/05 02:33:44;;;;;;;4.40;3.77;;;3.30;99.90;;;;;;5001987;28;20547;-52
2021/01/05 02:36:47;;;;;;;6.20;3.87;;;3.20;99.90;;;;;;5015879;28;20534;-54
2021/01/05 02:40:03;;;;;;;5.90;4.37;;;3.30;99.90;;;;;;5011720;28;20584;-51
2021/01/05 02:43:28;;;;;;;5.77;4.13;;;3.20;99.90;;;;;;5011880;28;20482;-56
2021/01/05 02:46:38;;;;;;;5.60;4.20;;;3.20;99.90;;;;;;5002796;28;20988;-54
2021/01/05 02:49:47;;;;;;;5.20;3.83;;;3.20;99.90;;;;;;4967076;28;20475;-52
2021/01/05 02:53:13;;;;;;;5.30;4.17;;;3.20;99.90;;;;;;4966178;28;20489;-53
2021/01/05 02:56:49;;;;;;;5.80;4.10;;;3.20;99.90;;;;;;5008674;28;20486;-53
2021/01/05 03:01:06;;;;;;;4.93;4.20;;;3.20;99.90;;;;;;4966683;28;20473;-52
2021/01/05 03:03:53;;;;;;;5.53;4.30;;;3.20;99.90;;;;;;4943173;28;20485;-52
2021/01/05 03:06:43;;;;;;;5.93;4.23;;;3.20;99.90;;;;;;5008065;28;20994;-55
2021/01/05 03:09:53;;;;;;;4.87;3.60;;;3.20;99.90;;;;;;5008580;28;20845;-55
2021/01/05 03:13:27;;;;;;;5.73;4.17;;;3.10;99.90;;;;;;5010204;28;20526;-55
2021/01/05 03:16:19;;;;;;;4.70;4.13;;;3.10;99.90;;;;;;5006909;28;20511;-55
2021/01/05 03:19:19;;;;;;;4.70;4.07;;;3.20;99.90;;;;;;5006854;28;20851;-52
2021/01/05 03:22:09;;;;;;;5.17;3.83;;;3.10;99.90;;;;;;5006137;28;20475;-52
2021/01/05 03:24:58;;;;;;;4.87;4.33;;;3.10;99.90;;;;;;5006650;28;20488;-53
2021/01/05 03:27:46;;;;;;;4.27;3.83;;;3.10;99.90;;;;;;5008122;28;20565;-52
2021/01/05 03:30:36;;;;;;;4.20;3.80;;;3.10;99.90;;;;;;5004597;28;20484;-54
2021/01/05 03:33:22;;;;;;;4.27;3.80;;;3.20;99.90;;;;;;5005726;28;20475;-56
2021/01/05 03:36:11;;;;;;;4.57;3.97;;;3.10;99.90;;;;;;5010032;28;21143;-54
2021/01/05 03:38:58;;;;;;;4.37;3.67;;;3.10;99.90;;;;;;5018022;28;20842;-55
2021/01/05 03:41:44;;;;;;;5.63;3.70;;;3.00;99.90;;;;;;5015396;28;20494;-55
2021/01/05 03:44:30;;;;;;;4.20;3.80;;;3.10;99.90;;;;;;5008100;28;20467;-54
2021/01/05 03:47:16;;;;;;;4.37;3.70;;;3.00;99.90;;;;;;5007568;28;20492;-54
2021/01/05 03:50:02;;;;;;;5.43;4.27;;;3.00;99.90;;;;;;5007753;28;20483;-55
2021/01/05 03:52:49;;;;;;;4.67;4.17;;;3.00;99.90;;;;;;5007469;28;20513;-52
2021/01/05 03:55:35;;;;;;;4.53;3.77;;;3.00;99.90;;;;;;5006963;28;20521;-55
2021/01/05 03:58:20;;;;;;;4.97;3.67;;;3.10;99.90;;;;;;5007823;28;20492;-52
2021/01/05 04:01:07;;;;;;;4.03;3.63;;;3.00;99.90;;;;;;5007057;28;20480;-54
2021/01/05 04:03:34;;;;;;;4.93;3.83;;;3.00;99.90;;;;;;5007297;28;20566;-55
2021/01/05 04:06:01;;;;;;;3.80;3.33;;;3.00;99.90;;;;;;5007631;28;21018;-52
2021/01/05 04:08:30;;;;;;;4.20;3.47;;;3.00;99.90;;;;;;5008084;28;20534;-52
2021/01/05 04:10:57;;;;;;;3.47;3.17;;;3.00;99.90;;;;;;5010196;28;20973;-54
2021/01/05 04:13:25;;;;;;;4.73;3.33;;;3.00;99.90;;;;;;5005392;28;20983;-55
2021/01/05 04:15:53;;;;;;;3.93;3.20;;;3.00;99.90;;;;;;5007539;28;20499;-53
2021/01/05 04:18:20;;;;;;;3.93;3.10;;;3.00;99.90;;;;;;5006522;28;20910;-53
2021/01/05 04:20:47;;;;;;;3.30;3.00;;;2.90;99.90;;;;;;5006568;28;20484;-52
2021/01/05 04:23:15;;;;;;;3.40;3.07;;;3.00;99.90;;;;;;5001657;28;21017;-53
2021/01/05 04:25:43;;;;;;;3.30;3.00;;;2.90;99.90;;;;;;5013837;28;20564;-55
2021/01/05 04:28:10;;;;;;;3.30;2.80;;;2.90;99.90;;;;;;5019327;28;20488;-53
2021/01/05 04:30:38;;;;;;;3.40;3.10;;;2.90;99.90;;;;;;5013239;28;20485;-54
2021/01/05 04:33:09;;;;;;;3.50;3.07;;;2.90;99.90;;;;;;5012942;28;20479;-55
2021/01/05 04:35:37;;;;;;;3.20;2.90;;;2.90;99.90;;;;;;5018352;28;20482;-56
2021/01/05 04:38:05;;;;;;;3.60;2.90;;;2.90;99.90;;;;;;5019180;28;20496;-52
2021/01/05 04:40:36;;;;;;;3.03;2.63;;;2.90;99.90;;;;;;5009619;28;20813;-55
2021/01/05 04:43:40;;;;;;;3.23;2.93;;;3.00;99.90;;;;;;5007070;28;20476;-53
2021/01/05 04:46:36;;;;;;;3.40;2.40;;;2.90;99.90;;;;;;5007420;28;20545;-54
2021/01/05 04:49:24;;;;;;;2.77;2.43;;;2.90;99.90;;;;;;5007373;28;21086;-53
2021/01/05 04:52:00;;;;;;;3.13;2.57;;;2.90;99.90;;;;;;5006637;28;20493;-52
2021/01/05 04:54:35;;;;;;;2.70;2.30;;;2.90;99.90;;;;;;5007774;28;20488;-54
2021/01/05 04:57:07;;;;;;;2.87;2.57;;;2.90;99.90;;;;;;5007391;28;20480;-55
2021/01/05 04:59:40;;;;;;;2.83;2.63;;;2.90;99.90;;;;;;5007349;28;20897;-54
2021/01/05 05:02:23;;;;;;;2.77;2.57;;;2.90;99.90;;;;;;5006447;28;21162;-54
2021/01/05 05:04:58;;;;;;;3.10;2.80;;;3.00;99.90;;;;;;5007754;28;20846;-54
2021/01/05 05:07:46;;;;;;;2.93;2.63;;;3.00;99.90;;;;;;5025875;28;20841;-54
2021/01/05 05:10:18;;;;;;;2.73;2.53;;;3.00;99.90;;;;;;5025658;28;20481;-52
2021/01/05 05:12:50;;;;;;;2.33;2.13;;;2.90;99.90;;;;;;5004720;28;20544;-52
2021/01/05 05:15:43;;;;;;;3.80;2.43;;;3.00;99.90;;;;;;4999233;28;20489;-55
2021/01/05 05:18:36;;;;;;;3.17;2.37;;;2.90;99.90;;;;;;5005598;28;20492;-52
2021/01/05 05:21:28;;;;;;;2.90;2.60;;;2.90;99.90;;;;;;5006154;28;20528;-53
2021/01/05 05:24:23;;;;;;;3.10;2.67;;;2.90;99.90;;;;;;5006791;28;21055;-53
2021/01/05 05:26:59;;;;;;;2.80;2.60;;;2.90;99.90;;;;;;5006112;28;20507;-54
2021/01/05 05:29:43;;;;;;;3.13;2.83;;;2.90;99.90;;;;;;5014964;28;20565;-53
2021/01/05 05:32:26;;;;;;;3.57;2.73;;;2.90;99.90;;;;;;5009275;28;20569;-55
2021/01/05 05:35:00;;;;;;;3.10;2.77;;;2.90;99.90;;;;;;5017943;28;20978;-53
2021/01/05 05:37:45;;;;;;;2.80;2.47;;;2.90;99.90;;;;;;5017212;28;20571;-53
2021/01/05 05:40:47;;;;;;;3.93;3.10;;;2.90;99.90;;;;;;5008777;28;20564;-54
2021/01/05 05:43:37;;;;;;;2.40;2.20;;;2.90;99.90;;;;;;5008397;28;20542;-53
2021/01/05 05:46:09;;;;;;;2.60;2.30;;;2.90;99.90;;;;;;5008556;28;20481;-53
2021/01/05 05:49:04;;;;;;;3.27;2.70;;;2.90;99.90;;;;;;5008714;28;20480;-52
2021/01/05 05:51:36;;;;;;;2.80;2.40;;;2.90;99.90;;;;;;5008162;28;20757;-56
2021/01/05 05:54:12;;;;;;;3.03;2.47;;;2.90;99.90;;;;;;5009003;28;20489;-56
2021/01/05 05:56:59;;;;;;;2.90;2.60;;;3.00;99.90;;;;;;5016648;28;20513;-54
2021/01/05 05:59:37;;;;;;;2.83;2.53;;;3.00;99.90;;;;;;4990831;28;20500;-55
2021/01/05 06:02:05;;;;;;;4.13;2.80;;;2.90;99.90;;;;;;5005296;28;20516;-52
2021/01/05 06:04:38;;;;;;;3.13;2.60;;;2.90;99.90;;;;;;5009941;28;20586;-52
2021/01/05 06:07:05;;;;;;;3.57;2.67;;;2.90;99.90;;;;;;5009788;28;20507;-55
2021/01/05 06:09:33;;;;;;;3.30;3.00;;;2.90;99.90;;;;;;5009721;28;20984;-52
2021/01/05 06:12:00;;;;;;;3.67;2.50;;;3.00;99.90;;;;;;5007374;28;20559;-55
2021/01/05 06:14:27;;;;;;;4.30;2.83;;;3.00;99.90;;;;;;5006649;28;20519;-52
2021/01/05 06:16:55;;;;;;;3.57;2.80;;;3.00;99.90;;;;;;5016700;28;20535;-52
2021/01/05 06:19:22;;;;;;;3.17;2.87;;;3.00;99.90;;;;;;5008840;28;20538;-54
2021/01/05 06:21:50;;;;;;;3.50;2.87;;;3.00;99.90;;;;;;4989220;28;20587;-56
2021/01/05 06:24:18;;;;;;;3.10;2.80;;;3.00;99.90;;;;;;4990135;28;20581;-54
2021/01/05 06:26:45;;;;;;;3.17;2.67;;;3.00;99.90;;;;;;4987161;28;20560;-52
2021/01/05 06:29:12;;;;;;;3.70;2.97;;;3.00;99.90;;;;;;4997600;28;20480;-55
2021/01/05 06:31:39;;;;;;;4.70;2.63;;;3.00;99.90;;;;;;4997906;28;20485;-55
2021/01/05 06:34:07;;;;;;;3.97;2.90;;;3.00;99.90;;;;;;5008137;28;20480;-55
2021/01/05 06:36:34;;;;;;;4.93;3.50;;;3.00;99.90;;;;;;5008739;28;20484;-53
2021/01/05 06:39:04;;;;;;;4.60;3.10;;;3.00;99.90;;;;;;4999161;28;20544;-53
2021/01/05 06:41:31;;;;;;;5.90;3.80;;;3.00;99.90;;;;;;4989297;28;20567;-55
2021/01/05 06:43:59;;;;;;;5.00;3.70;;;3.00;99.90;;;;;;4989901;28;21110;-51
2021/01/05 06:46:32;;;;;;;5.97;3.27;;;3.00;99.90;;;;;;4988392;28;20469;-52
2021/01/05 06:48:59;;;;;;;6.53;3.77;;;3.00;99.90;;;;;;4982839;28;20517;-52
2021/01/05 06:51:26;;;;;;;6.23;4.03;;;3.10;99.90;;;;;;4983854;28;20477;-53
2021/01/05 06:53:54;;;;;;;4.80;4.30;;;3.10;99.90;;;;;;4985688;28;20589;-55
2021/01/05 06:56:22;;;;;;;5.50;4.27;;;3.10;99.90;;;;;;4986267;28;20479;-52
2021/01/05 06:58:50;;;;;;;5.50;4.13;;;3.30;99.90;;;;;;4981179;28;20493;-55
2021/01/05 07:01:17;;;;;;;5.80;4.23;;;3.10;99.90;;;;;;4965833;28;21092;-55
2021/01/05 07:03:44;;;;;;;4.93;3.87;;;3.00;99.90;;;;;;4966760;28;21225;-55
2021/01/05 07:06:12;;;;;;;5.27;4.60;;;3.10;99.90;;;;;;4967166;28;20563;-54
2021/01/05 07:08:39;;;;;;;4.57;3.90;;;3.00;99.90;;;;;;4983613;28;20511;-53
2021/01/05 07:11:06;;;;;;;6.70;4.37;;;3.00;99.90;;;;;;4983284;28;20561;-54
2021/01/05 07:13:34;;;;;;;7.13;4.43;;;3.00;99.90;;;;;;4985366;28;20517;-55
2021/01/05 07:16:01;;;;;;;5.20;4.70;;;3.00;99.90;;;;;;4986079;28;20573;-56
2021/01/05 07:18:29;;;;;;;6.67;4.87;;;3.00;99.90;;;;;;4996560;28;20511;-53
2021/01/05 07:20:56;;;;;;;5.97;4.83;;;3.00;99.90;;;;;;5014783;28;20552;-56
2021/01/05 07:23:24;;;;;;;6.27;4.83;;;3.00;99.90;;;;;;5014746;28;20859;-54
2021/01/05 07:25:51;;;;;;;5.10;4.60;;;3.00;99.90;;;;;;5010554;28;20484;-55
2021/01/05 07:28:18;;;;;;;5.30;4.53;;;3.00;99.90;;;;;;5011871;28;21003;-54
2021/01/05 07:30:47;;;;;;;4.50;4.03;;;3.00;99.90;;;;;;5016057;28;20531;-54
2021/01/05 07:33:14;;;;;;;5.60;4.90;;;3.00;99.90;;;;;;5008244;28;20649;-53
2021/01/05 07:35:41;;;;;;;6.30;4.73;;;3.00;99.90;;;;;;5005249;28;20571;-55
2021/01/05 07:38:08;;;;;;;5.00;4.50;;;3.00;99.90;;;;;;5005019;28;20556;-52
2021/01/05 07:40:35;;;;;;;6.30;5.40;;;3.00;99.90;;;;;;5004650;28;20522;-56
2021/01/05 07:43:03;;;;;;;5.90;4.90;;;3.00;99.90;;;;;;5004727;28;20523;-53
2021/01/05 07:45:30;;;;;;;6.40;5.33;;;3.00;99.90;;;;;;5005339;28;20477;-54
2021/01/05 07:47:58;;;;;;;5.40;4.90;;;3.00;99.90;;;;;;4996039;28;20495;-54
2021/01/05 07:50:27;;;;;;;5.20;4.70;;;3.00;99.90;;;;;;4985407;28;20560;-55
2021/01/05 07:52:55;;;;;;;4.80;4.27;;;3.10;99.90;;;;;;4984799;28;20976;-56
2021/01/05 07:55:25;;;;;;;5.43;4.80;;;3.10;99.90;;;;;;4985331;28;20566;-54
2021/01/05 07:57:54;;;;;;;5.93;4.80;;;3.10;99.90;;;;;;4985567;28;20481;-54
2021/01/05 08:00:24;;;;;;;6.20;4.43;;;3.10;99.90;;;;;;4985021;28;20555;-56
2021/01/05 08:02:54;;;;;;;6.87;5.33;;;3.10;99.90;;;;;;4984915;28;20485;-56
2021/01/05 08:05:25;;;;;;;7.33;4.53;;;3.10;99.90;;;;;;4997938;28;20851;-54
2021/01/05 08:07:53;;;;;;;7.60;4.80;;;3.00;99.90;;;;;;4999181;28;20881;-55
2021/01/05 08:10:24;;;;;;;6.73;4.40;;;3.10;99.90;;;;;;4998689;28;20575;-53
2021/01/05 08:12:51;;;;;;;5.53;4.80;;;3.10;99.90;;;;;;5002926;28;20543;-52
2021/01/05 08:15:21;;;;;;;5.27;4.53;;;3.10;99.90;;;;;;5003418;28;20480;-53
2021/01/05 08:17:49;;;;;;;5.90;4.60;;;3.10;99.90;;;;;;5003183;28;20575;-53
2021/01/05 08:20:18;;;;;;;6.50;4.63;;;3.10;99.90;;;;;;5001435;28;20517;-54
2021/01/05 08:22:47;;;;;;;4.93;4.43;;;3.10;99.90;;;;;;5009088;28;20499;-52
2021/01/05 08:25:17;;;;;;;5.93;4.77;;;3.10;99.90;;;;;;5004303;28;20556;-52
2021/01/05 08:27:47;;;;;;;5.20;4.30;;;3.10;99.90;;;;;;5011182;28;20643;-56
2021/01/05 08:30:19;;;;;;;5.03;4.30;;;3.10;99.90;;;;;;5005428;28;20831;-53
2021/01/05 08:32:46;;;;;;;5.10;4.60;;;3.10;99.90;;;;;;5002388;28;20567;-52
2021/01/05 08:35:16;;;;;;;5.03;4.20;;;3.20;99.90;;;;;;5003340;28;20501;-53
2021/01/05 08:37:43;;;;;;;5.77;4.67;;;3.10;99.90;;;;;;5003522;28;20484;-52
2021/01/05 08:40:17;;;;;;;4.83;4.30;;;3.20;99.90;;;;;;5003548;28;21057;-55
2021/01/05 08:42:44;;;;;;;5.43;4.60;;;3.20;99.90;;;;;;5003126;28;20559;-55
2021/01/05 08:45:13;;;;;;;6.87;4.60;;;3.20;99.90;;;;;;5003396;28;20476;-56
2021/01/05 08:47:41;;;;;;;5.07;4.57;;;3.20;99.90;;;;;;5003566;28;20479;-52
2021/01/05 08:50:15;;;;;;;5.10;4.60;;;3.20;99.90;;;;;;5003580;28;20497;-54
2021/01/05 08:52:42;;;;;;;7.00;5.10;;;3.30;99.90;;;;;;5002873;28;20481;-54
2021/01/05 08:55:12;;;;;;;5.37;4.57;;;3.20;99.90;;;;;;5002974;28;20893;-56
2021/01/05 08:57:39;;;;;;;5.13;4.50;;;3.20;99.90;;;;;;5002651;28;20508;-54
2021/01/05 09:00:08;;;;;;;6.67;4.30;;;3.20;99.90;;;;;;5004666;28;20480;-53
2021/01/05 09:02:36;;;;;;;5.87;4.80;;;3.20;99.90;;;;;;5005816;28;20496;-56
2021/01/05 09:05:04;;;;;;;5.43;4.17;;;3.20;99.90;;;;;;5004671;28;20582;-54
2021/01/05 09:07:31;;;;;;;5.13;3.73;;;3.20;99.90;;;;;;5005651;28;20476;-56
2021/01/05 09:09:59;;;;;;;6.87;4.20;;;3.30;99.90;;;;;;5006150;28;20480;-56
2021/01/05 09:12:33;;;;;;;4.33;3.83;;;3.30;99.90;;;;;;5006823;28;20482;-55
2021/01/05 09:15:01;;;;;;;4.93;4.03;;;3.30;99.90;;;;;;4997407;28;20575;-53
2021/01/05 09:17:28;;;;;;;5.23;3.70;;;3.20;99.90;;;;;;4991241;28;20566;-54
2021/01/05 09:19:55;;;;;;;5.83;4.03;;;3.20;99.90;;;;;;5001011;28;20581;-56
2021/01/05 09:22:24;;;;;;;5.73;3.67;;;3.20;99.90;;;;;;5014069;28;21117;-56
2021/01/05 09:24:52;;;;;;;4.43;4.03;;;3.20;99.90;;;;;;5014080;28;20513;-53
2021/01/05 09:27:19;;;;;;;5.03;3.93;;;3.20;99.90;;;;;;5008734;28;20883;-55
2021/01/05 09:29:47;;;;;;;4.43;3.67;;;3.20;99.90;;;;;;5010037;28;20503;-52
2021/01/05 09:32:14;;;;;;;4.43;4.03;;;3.20;99.90;;;;;;5005260;28;20897;-56
2021/01/05 09:34:42;;;;;;;5.03;3.63;;;3.20;99.90;;;;;;5005962;28;21165;-54
2021/01/05 09:37:09;;;;;;;6.17;3.70;;;3.20;99.90;;;;;;5006531;28;20943;-56
2021/01/05 09:39:36;;;;;;;4.37;3.93;;;3.30;99.90;;;;;;5005823;28;21158;-53
2021/01/05 09:42:05;;;;;;;5.83;4.07;;;3.20;99.90;;;;;;5005879;28;20487;-53
2021/01/05 09:44:33;;;;;;;4.40;3.60;;;3.30;99.90;;;;;;5002470;28;20476;-54
2021/01/05 09:47:02;;;;;;;4.20;3.80;;;3.20;99.90;;;;;;5008015;28;20512;-54
2021/01/05 09:49:30;;;;;;;4.70;4.13;;;3.30;99.90;;;;;;4989380;28;20844;-54
2021/01/05 09:51:58;;;;;;;3.90;3.50;;;3.30;99.90;;;;;;5004552;28;20570;-55
2021/01/05 09:54:27;;;;;;;4.43;3.90;;;3.30;99.90;;;;;;5001370;28;20508;-54
2021/01/05 09:56:56;;;;;;;4.63;3.83;;;3.30;99.90;;;;;;5006564;28;20485;-54
2021/01/05 09:59:26;;;;;;;4.73;3.73;;;3.30;99.90;;;;;;5004041;28;20483;-54
2021/01/05 10:01:55;;;;;;;5.30;3.80;;;3.30;99.90;;;;;;5001517;28;20882;-53
2021/01/05 10:04:25;;;;;;;5.10;3.70;;;3.30;99.90;;;;;;5004823;28;20480;-54
2021/01/05 10:06:53;;;;;;;5.70;3.90;;;3.30;99.90;;;;;;5003466;28;20885;-52
2021/01/05 10:09:20;;;;;;;4.77;4.20;;;3.30;99.90;;;;;;5005830;28;20538;-55
2021/01/05 10:11:48;;;;;;;3.70;3.40;;;3.30;99.90;;;;;;5005571;28;20489;-53
2021/01/05 10:14:18;;;;;;;5.03;4.03;;;3.30;99.90;;;;;;5003356;28;20590;-52
2021/01/05 10:16:53;;;;;;;4.30;3.83;;;3.30;99.90;;;;;;5005452;28;20613;-52
2021/01/05 10:19:20;;;;;;;4.33;3.93;;;3.40;99.90;;;;;;5007205;28;20506;-55
2021/01/05 10:21:49;;;;;;;4.53;3.53;;;3.40;99.90;;;;;;5012288;28;20487;-54
2021/01/05 10:24:16;;;;;;;4.40;3.73;;;3.40;99.90;;;;;;5006001;28;20539;-54
2021/01/05 10:26:51;;;;;;;4.90;4.40;;;3.40;99.90;;;;;;5001947;28;20482;-54
2021/01/05 10:29:19;;;;;;;3.53;3.10;;;3.40;99.90;;;;;;5006835;28;20921;-56
2021/01/05 10:31:47;;;;;;;4.23;3.30;;;3.40;99.90;;;;;;5005626;28;20478;-56
2021/01/05 10:34:18;;;;;;;5.00;3.90;;;3.40;99.90;;;;;;5005979;28;20536;-55
2021/01/05 10:36:49;;;;;;;5.83;3.90;;;3.40;99.90;;;;;;5005904;28;20911;-56
2021/01/05 10:39:17;;;;;;;4.33;3.90;;;3.30;99.90;;;;;;5006142;28;20578;-54
2021/01/05 10:41:47;;;;;;;4.30;3.90;;;3.40;99.90;;;;;;5006041;28;20508;-53
2021/01/05 10:44:18;;;;;;;4.53;3.77;;;3.40;99.90;;;;;;5004396;28;20477;-54
2021/01/05 10:46:45;;;;;;;4.03;3.63;;;3.40;99.90;;;;;;4998272;28;20920;-53
2021/01/05 10:49:14;;;;;;;4.10;3.70;;;3.40;99.90;;;;;;5003673;28;20570;-54
2021/01/05 10:51:46;;;;;;;4.43;3.90;;;3.40;99.90;;;;;;5003111;28;20988;-55
2021/01/05 10:54:16;;;;;;;3.77;3.47;;;3.40;99.90;;;;;;5003693;28;20558;-52
2021/01/05 10:56:45;;;;;;;5.60;3.50;;;3.40;99.90;;;;;;5003328;28;20955;-56
2021/01/05 10:59:13;;;;;;;5.17;3.87;;;3.40;99.90;;;;;;4998759;28;20509;-53
2021/01/05 11:01:40;;;;;;;3.93;3.40;;;3.40;99.90;;;;;;5001991;28;20514;-56
2021/01/05 11:04:07;;;;;;;3.73;3.43;;;3.40;99.90;;;;;;5005256;28;21086;-56
2021/01/05 11:06:37;;;;;;;3.53;3.20;;;3.40;99.90;;;;;;5012079;28;20476;-53
2021/01/05 11:09:05;;;;;;;5.70;3.90;;;3.40;99.90;;;;;;5005901;28;21041;-55
2021/01/05 11:11:33;;;;;;;3.97;3.57;;;3.40;99.90;;;;;;5005235;28;20896;-56
2021/01/05 11:14:01;;;;;;;3.47;3.13;;;3.50;99.90;;;;;;5012384;28;21368;-53
2021/01/05 11:16:28;;;;;;;4.37;3.20;;;3.40;99.90;;;;;;5006473;28;20951;-53
2021/01/05 11:18:55;;;;;;;4.50;3.33;;;3.50;99.90;;;;;;5005348;28;21098;-54
2021/01/05 11:21:23;;;;;;;4.33;3.43;;;3.40;99.90;;;;;;5010705;28;20821;-54
2021/01/05 11:23:50;;;;;;;4.10;3.57;;;3.40;99.90;;;;;;5002868;28;21009;-56
2021/01/05 11:26:18;;;;;;;3.67;3.17;;;3.50;99.90;;;;;;5004901;28;20924;-56
2021/01/05 11:28:53;;;;;;;4.43;3.70;;;3.50;99.90;;;;;;5004378;28;20485;-56
2021/01/05 11:31:21;;;;;;;5.90;3.70;;;3.40;99.90;;;;;;5005041;28;20596;-55
2021/01/05 11:33:48;;;;;;;3.87;3.57;;;3.50;99.90;;;;;;5004296;28;20486;-55
2021/01/05 11:36:27;;;;;;;3.90;3.50;;;3.50;99.90;;;;;;5003947;28;20472;-56
2021/01/05 11:38:56;;;;;;;4.20;3.80;;;3.50;99.90;;;;;;5004216;28;20500;-54
2021/01/05 11:41:27;;;;;;;4.70;3.30;;;3.60;99.90;;;;;;5003993;28;20732;-53
2021/01/05 11:43:56;;;;;;;3.63;3.33;;;3.50;99.90;;;;;;5003933;28;20565;-56
2021/01/05 11:46:24;;;;;;;4.23;3.60;;;3.50;99.90;;;;;;5003764;28;20825;-52
2021/01/05 11:48:52;;;;;;;5.67;3.80;;;3.50;99.90;;;;;;5002862;28;20504;-56
2021/01/05 11:51:23;;;;;;;5.03;3.50;;;3.50;99.90;;;;;;5003565;28;20488;-54
2021/01/05 11:53:51;;;;;;;3.73;3.37;;;3.60;99.90;;;;;;5003829;28;20588;-54
2021/01/05 11:56:20;;;;;;;3.90;3.47;;;3.60;99.90;;;;;;4998917;28;20588;-53
2021/01/05 11:58:48;;;;;;;4.43;3.37;;;3.60;99.90;;;;;;4999983;28;20509;-53
2021/01/05 12:01:16;;;;;;;4.03;3.60;;;3.60;99.90;;;;;;5002349;28;20560;-54
2021/01/05 12:03:44;;;;;;;5.03;3.40;;;3.60;99.90;;;;;;5001921;28;20873;-52
2021/01/05 12:06:14;;;;;;;3.90;3.47;;;3.60;99.90;;;;;;4994031;28;20473;-53
2021/01/05 12:08:41;;;;;;;3.33;2.70;;;3.60;99.90;;;;;;5000153;28;20555;-54
2021/01/05 12:11:09;;;;;;;2.97;2.73;;;3.60;99.90;;;;;;5001890;28;20493;-55
2021/01/05 12:13:37;;;;;;;3.17;2.50;;;3.60;99.90;;;;;;4999606;28;21090;-56
2021/01/05 12:16:05;;;;;;;3.37;3.07;;;3.50;99.90;;;;;;5000422;28;20815;-56
2021/01/05 12:18:33;;;;;;;4.20;2.70;;;3.50;99.90;;;;;;5005065;28;20540;-53
2021/01/05 12:21:00;;;;;;;2.87;2.67;;;3.50;99.90;;;;;;5002935;28;21129;-53
2021/01/05 12:23:28;;;;;;;3.37;2.70;;;3.60;99.90;;;;;;5003102;28;20978;-52
2021/01/05 12:25:55;;;;;;;3.10;2.80;;;3.50;99.90;;;;;;5003569;28;20808;-53
2021/01/05 12:28:22;;;;;;;2.80;2.60;;;3.50;99.90;;;;;;5002986;28;20505;-54
2021/01/05 12:30:49;;;;;;;2.73;2.53;;;3.60;99.90;;;;;;5006114;28;20545;-55
2021/01/05 12:33:17;;;;;;;4.10;2.50;;;3.60;99.90;;;;;;5015472;28;20571;-53
2021/01/05 12:35:45;;;;;;;2.50;2.30;;;3.50;99.90;;;;;;5025495;28;20494;-55
2021/01/05 12:38:12;;;;;;;2.57;2.37;;;3.50;99.90;;;;;;5027051;28;20477;-56
2021/01/05 12:40:39;;;;;;;3.63;2.50;;;3.60;99.90;;;;;;5026545;28;20557;-56
2021/01/05 12:43:07;;;;;;;2.80;2.60;;;3.50;99.90;;;;;;5026845;28;20503;-56
2021/01/05 12:45:34;;;;;;;3.00;2.70;;;3.60;99.90;;;;;;5026729;28;21066;-52
2021/01/05 12:48:01;;;;;;;2.80;2.60;;;3.60;99.90;;;;;;5017601;28;20947;-56
2021/01/05 12:50:28;;;;;;;3.60;2.40;;;3.60;99.90;;;;;;5007874;28;20485;-56
2021/01/05 12:52:57;;;;;;;3.00;2.70;;;3.60;99.90;;;;;;5006029;28;20560;-53
2021/01/05 12:55:24;;;;;;;3.60;3.10;;;3.70;99.90;;;;;;5004103;28;21547;-53
2021/01/05 12:57:51;;;;;;;3.00;2.70;;;3.60;99.90;;;;;;5007869;28;20894;-54
2021/01/05 13:00:20;;;;;;;4.33;2.70;;;3.70;99.90;;;;;;5008389;28;20478;-56
2021/01/05 13:02:48;;;;;;;3.60;2.50;;;3.60;99.90;;;;;;5008246;28;20558;-55
2021/01/05 13:05:15;;;;;;;3.70;2.60;;;3.60;99.90;;;;;;5008535;28;20993;-56
2021/01/05 13:07:42;;;;;;;3.17;2.87;;;3.70;99.90;;;;;;5012297;28;20483;-56
2021/01/05 13:10:15;;;;;;;4.03;3.63;;;3.70;99.90;;;;;;5008769;28;20887;-53
2021/01/05 13:12:43;;;;;;;3.80;3.50;;;3.70;99.90;;;;;;5006237;28;20498;-52
2021/01/05 13:15:12;;;;;;;3.83;3.37;;;3.70;99.90;;;;;;5007991;28;20903;-54
2021/01/05 13:17:40;;;;;;;3.50;3.17;;;3.70;99.90;;;;;;5006439;28;20482;-56
2021/01/05 13:20:10;;;;;;;3.57;2.90;;;3.70;99.90;;;;;;5007526;28;20579;-56
2021/01/05 13:22:38;;;;;;;3.60;3.03;;;3.70;99.90;;;;;;5007308;28;20510;-53
2021/01/05 13:25:10;;;;;;;3.10;2.70;;;3.80;99.90;;;;;;5006554;28;20572;-53
2021/01/05 13:27:38;;;;;;;4.33;2.90;;;3.80;99.90;;;;;;5007219;28;20483;-56
2021/01/05 13:30:10;;;;;;;2.87;2.40;;;3.80;99.90;;;;;;5007069;28;20935;-53
2021/01/05 13:32:37;;;;;;;2.80;2.40;;;3.80;99.90;;;;;;5002739;28;20482;-54